sensor_id;sensor_type;location;lat;lon;timestamp;pressure;altitude;pressure_sealevel;temperature;humidity
49949;BME280;35840;45.982;8.890;2023-04-16T00:00:49;97845.13;;;10.80;45.99
49949;BME280;35840;45.982;8.890;2023-04-16T00:03:16;97848.66;;;10.79;45.55
49949;BME280;35840;45.982;8.890;2023-04-16T00:05:43;97847.41;;;10.84;45.82
49949;BME280;35840;45.982;8.890;2023-04-16T00:08:10;97848.81;;;10.89;44.27
49949;BME280;35840;45.982;8.890;2023-04-16T00:10:36;97828.28;;;10.76;45.14
49949;BME280;35840;45.982;8.890;2023-04-16T00:13:03;97843.50;;;10.79;45.05
49949;BME280;35840;45.982;8.890;2023-04-16T00:15:30;97836.53;;;10.68;44.45
49949;BME280;35840;45.982;8.890;2023-04-16T00:17:57;97848.56;;;10.29;43.57
49949;BME280;35840;45.982;8.890;2023-04-16T00:20:24;97845.09;;;10.30;43.24
49949;BME280;35840;45.982;8.890;2023-04-16T00:22:50;97846.03;;;10.42;45.51
49949;BME280;35840;45.982;8.890;2023-04-16T00:25:17;97843.66;;;10.39;45.39
49949;BME280;35840;45.982;8.890;2023-04-16T00:27:44;97843.78;;;10.37;45.79
49949;BME280;35840;45.982;8.890;2023-04-16T00:30:11;97845.41;;;10.38;45.90
49949;BME280;35840;45.982;8.890;2023-04-16T00:32:37;97822.38;;;10.24;45.96
49949;BME280;35840;45.982;8.890;2023-04-16T00:35:05;97847.44;;;10.33;45.98
49949;BME280;35840;45.982;8.890;2023-04-16T00:37:32;97846.13;;;10.40;45.79
49949;BME280;35840;45.982;8.890;2023-04-16T00:39:59;97848.22;;;10.35;45.03
49949;BME280;35840;45.982;8.890;2023-04-16T00:42:26;97849.19;;;10.32;46.08
49949;BME280;35840;45.982;8.890;2023-04-16T00:44:53;97852.69;;;10.31;46.68
49949;BME280;35840;45.982;8.890;2023-04-16T00:47:20;97827.00;;;10.19;45.80
49949;BME280;35840;45.982;8.890;2023-04-16T00:49:48;97854.06;;;10.37;46.21
49949;BME280;35840;45.982;8.890;2023-04-16T00:52:14;97847.38;;;10.34;46.34
49949;BME280;35840;45.982;8.890;2023-04-16T00:54:41;97846.84;;;10.29;46.35
49949;BME280;35840;45.982;8.890;2023-04-16T00:57:09;97850.22;;;10.30;46.75
49949;BME280;35840;45.982;8.890;2023-04-16T00:59:36;97847.66;;;10.30;46.59
49949;BME280;35840;45.982;8.890;2023-04-16T01:02:03;97847.88;;;10.27;46.90
49949;BME280;35840;45.982;8.890;2023-04-16T01:04:30;97827.75;;;10.21;46.60
49949;BME280;35840;45.982;8.890;2023-04-16T01:06:57;97842.31;;;10.20;46.63
49949;BME280;35840;45.982;8.890;2023-04-16T01:09:23;97843.34;;;10.17;46.95
49949;BME280;35840;45.982;8.890;2023-04-16T01:11:50;97841.09;;;10.13;47.07
49949;BME280;35840;45.982;8.890;2023-04-16T01:14:17;97840.47;;;10.09;46.60
49949;BME280;35840;45.982;8.890;2023-04-16T01:16:44;97840.56;;;10.08;47.24
49949;BME280;35840;45.982;8.890;2023-04-16T01:19:10;97842.53;;;10.04;46.23
49949;BME280;35840;45.982;8.890;2023-04-16T01:21:50;97840.97;;;10.02;47.67
49949;BME280;35840;45.982;8.890;2023-04-16T01:24:17;97842.22;;;9.96;47.56
49949;BME280;35840;45.982;8.890;2023-04-16T01:26:43;97837.28;;;9.93;47.82
49949;BME280;35840;45.982;8.890;2023-04-16T01:29:10;97837.28;;;9.93;47.88
49949;BME280;35840;45.982;8.890;2023-04-16T01:31:37;97842.94;;;9.98;47.68
49949;BME280;35840;45.982;8.890;2023-04-16T01:34:33;97842.41;;;9.93;48.17
49949;BME280;35840;45.982;8.890;2023-04-16T01:37:00;97839.22;;;9.89;48.88
49949;BME280;35840;45.982;8.890;2023-04-16T01:39:26;97833.69;;;9.82;48.77
49949;BME280;35840;45.982;8.890;2023-04-16T01:41:55;97835.03;;;9.88;48.84
49949;BME280;35840;45.982;8.890;2023-04-16T01:44:22;97834.50;;;9.83;47.92
49949;BME280;35840;45.982;8.890;2023-04-16T01:46:50;97825.97;;;9.70;48.07
49949;BME280;35840;45.982;8.890;2023-04-16T01:49:16;97821.84;;;9.67;48.16
49949;BME280;35840;45.982;8.890;2023-04-16T01:51:43;97836.63;;;9.76;48.50
49949;BME280;35840;45.982;8.890;2023-04-16T01:54:10;97841.75;;;9.76;48.56
49949;BME280;35840;45.982;8.890;2023-04-16T01:56:38;97828.72;;;9.79;48.98
49949;BME280;35840;45.982;8.890;2023-04-16T01:59:05;97828.66;;;9.81;48.39
49949;BME280;35840;45.982;8.890;2023-04-16T02:01:37;97827.31;;;9.75;47.63
49949;BME280;35840;45.982;8.890;2023-04-16T02:04:04;97839.78;;;9.54;48.90
49949;BME280;35840;45.982;8.890;2023-04-16T02:06:32;97830.53;;;9.52;49.03
49949;BME280;35840;45.982;8.890;2023-04-16T02:09:00;97834.94;;;9.50;49.37
49949;BME280;35840;45.982;8.890;2023-04-16T02:11:27;97827.66;;;9.43;49.55
49949;BME280;35840;45.982;8.890;2023-04-16T02:13:54;97836.59;;;9.51;49.94
49949;BME280;35840;45.982;8.890;2023-04-16T02:16:21;97829.09;;;9.47;49.66
49949;BME280;35840;45.982;8.890;2023-04-16T02:18:55;97826.47;;;9.22;48.59
49949;BME280;35840;45.982;8.890;2023-04-16T02:21:24;97822.78;;;9.26;48.98
49949;BME280;35840;45.982;8.890;2023-04-16T02:23:52;97815.00;;;9.27;48.82
49949;BME280;35840;45.982;8.890;2023-04-16T02:26:24;97826.16;;;9.26;49.33
49949;BME280;35840;45.982;8.890;2023-04-16T02:28:54;97832.31;;;9.24;49.28
49949;BME280;35840;45.982;8.890;2023-04-16T02:31:26;97821.22;;;9.23;50.08
49949;BME280;35840;45.982;8.890;2023-04-16T02:33:56;97825.00;;;9.18;49.47
49949;BME280;35840;45.982;8.890;2023-04-16T02:36:23;97823.25;;;9.18;49.53
49949;BME280;35840;45.982;8.890;2023-04-16T02:38:49;97829.22;;;9.19;49.92
49949;BME280;35840;45.982;8.890;2023-04-16T02:41:16;97828.38;;;9.18;49.02
49949;BME280;35840;45.982;8.890;2023-04-16T02:43:43;97827.56;;;9.18;50.08
49949;BME280;35840;45.982;8.890;2023-04-16T02:46:10;97803.53;;;9.06;49.72
49949;BME280;35840;45.982;8.890;2023-04-16T02:48:38;97821.50;;;9.06;49.71
49949;BME280;35840;45.982;8.890;2023-04-16T02:51:04;97829.34;;;9.03;49.92
49949;BME280;35840;45.982;8.890;2023-04-16T02:53:31;97820.75;;;9.04;50.53
49949;BME280;35840;45.982;8.890;2023-04-16T02:55:58;97812.44;;;9.00;50.25
49949;BME280;35840;45.982;8.890;2023-04-16T02:58:25;97826.28;;;8.98;50.42
49949;BME280;35840;45.982;8.890;2023-04-16T03:00:52;97832.41;;;8.95;49.85
49949;BME280;35840;45.982;8.890;2023-04-16T03:03:20;97813.41;;;8.85;50.29
49949;BME280;35840;45.982;8.890;2023-04-16T03:05:47;97823.16;;;8.92;50.23
49949;BME280;35840;45.982;8.890;2023-04-16T03:08:15;97817.84;;;8.95;49.63
49949;BME280;35840;45.982;8.890;2023-04-16T03:10:42;97830.38;;;9.00;49.19
49949;BME280;35840;45.982;8.890;2023-04-16T03:13:08;97833.84;;;8.99;49.19
49949;BME280;35840;45.982;8.890;2023-04-16T03:15:35;97836.53;;;8.98;49.76
49949;BME280;35840;45.982;8.890;2023-04-16T03:18:02;97829.28;;;8.90;49.30
49949;BME280;35840;45.982;8.890;2023-04-16T03:20:29;97816.50;;;8.75;49.00
49949;BME280;35840;45.982;8.890;2023-04-16T03:22:56;97833.16;;;8.83;49.19
49949;BME280;35840;45.982;8.890;2023-04-16T03:25:22;97846.06;;;8.81;50.12
49949;BME280;35840;45.982;8.890;2023-04-16T03:27:50;97841.03;;;8.79;50.20
49949;BME280;35840;45.982;8.890;2023-04-16T03:30:17;97845.50;;;8.90;50.14
49949;BME280;35840;45.982;8.890;2023-04-16T03:32:44;97845.41;;;8.92;50.34
49949;BME280;35840;45.982;8.890;2023-04-16T03:35:11;97855.94;;;8.87;50.49
49949;BME280;35840;45.982;8.890;2023-04-16T03:37:38;97851.19;;;8.81;50.96
49949;BME280;35840;45.982;8.890;2023-04-16T03:40:05;97855.03;;;8.88;50.98
49949;BME280;35840;45.982;8.890;2023-04-16T03:42:33;97857.78;;;8.85;50.58
49949;BME280;35840;45.982;8.890;2023-04-16T03:45:01;97854.84;;;8.77;51.75
49949;BME280;35840;45.982;8.890;2023-04-16T03:47:28;97846.44;;;8.75;52.62
49949;BME280;35840;45.982;8.890;2023-04-16T03:49:58;97859.38;;;8.73;51.58
49949;BME280;35840;45.982;8.890;2023-04-16T03:52:26;97863.75;;;8.71;52.31
49949;BME280;35840;45.982;8.890;2023-04-16T03:54:55;97842.63;;;8.53;52.16
49949;BME280;35840;45.982;8.890;2023-04-16T03:57:27;97866.97;;;8.60;52.54
49949;BME280;35840;45.982;8.890;2023-04-16T03:59:59;97853.69;;;8.54;53.39
49949;BME280;35840;45.982;8.890;2023-04-16T04:02:39;97855.00;;;8.47;52.59
49949;BME280;35840;45.982;8.890;2023-04-16T04:05:17;97859.91;;;8.35;53.06
49949;BME280;35840;45.982;8.890;2023-04-16T04:07:45;97860.81;;;8.34;53.50
49949;BME280;35840;45.982;8.890;2023-04-16T04:10:13;97862.00;;;8.43;52.77
49949;BME280;35840;45.982;8.890;2023-04-16T04:12:40;97860.84;;;8.49;52.92
49949;BME280;35840;45.982;8.890;2023-04-16T04:15:08;97866.94;;;8.32;52.47
49949;BME280;35840;45.982;8.890;2023-04-16T04:17:35;97874.00;;;8.28;51.97
49949;BME280;35840;45.982;8.890;2023-04-16T04:20:02;97869.59;;;8.30;52.87
49949;BME280;35840;45.982;8.890;2023-04-16T04:22:30;97871.16;;;8.33;52.78
49949;BME280;35840;45.982;8.890;2023-04-16T04:24:57;97865.22;;;8.32;52.70
49949;BME280;35840;45.982;8.890;2023-04-16T04:27:26;97868.88;;;8.28;52.19
49949;BME280;35840;45.982;8.890;2023-04-16T04:29:53;97886.31;;;8.21;52.37
49949;BME280;35840;45.982;8.890;2023-04-16T04:32:20;97885.75;;;8.16;53.02
49949;BME280;35840;45.982;8.890;2023-04-16T04:34:48;97885.56;;;8.19;52.20
49949;BME280;35840;45.982;8.890;2023-04-16T04:37:14;97891.16;;;8.26;52.02
49949;BME280;35840;45.982;8.890;2023-04-16T04:39:42;97887.22;;;8.20;52.01
49949;BME280;35840;45.982;8.890;2023-04-16T04:42:11;97887.41;;;8.17;52.22
49949;BME280;35840;45.982;8.890;2023-04-16T04:44:38;97899.00;;;8.08;53.04
49949;BME280;35840;45.982;8.890;2023-04-16T04:47:06;97891.94;;;7.98;53.13
49949;BME280;35840;45.982;8.890;2023-04-16T04:49:34;97894.97;;;8.04;53.83
49949;BME280;35840;45.982;8.890;2023-04-16T04:52:01;97897.91;;;7.98;53.69
49949;BME280;35840;45.982;8.890;2023-04-16T04:54:30;97893.19;;;7.90;53.69
49949;BME280;35840;45.982;8.890;2023-04-16T04:56:58;97902.16;;;7.83;54.07
49949;BME280;35840;45.982;8.890;2023-04-16T04:59:25;97904.88;;;7.80;54.17
49949;BME280;35840;45.982;8.890;2023-04-16T05:01:52;97908.25;;;7.81;53.95
49949;BME280;35840;45.982;8.890;2023-04-16T05:04:19;97909.19;;;7.80;54.29
49949;BME280;35840;45.982;8.890;2023-04-16T05:06:45;97904.13;;;7.78;55.03
49949;BME280;35840;45.982;8.890;2023-04-16T05:09:12;97906.53;;;7.81;55.09
49949;BME280;35840;45.982;8.890;2023-04-16T05:11:40;97912.50;;;7.96;54.60
49949;BME280;35840;45.982;8.890;2023-04-16T05:14:07;97909.94;;;7.96;53.79
49949;BME280;35840;45.982;8.890;2023-04-16T05:16:35;97917.81;;;7.93;54.90
49949;BME280;35840;45.982;8.890;2023-04-16T05:19:02;97915.25;;;7.93;54.56
49949;BME280;35840;45.982;8.890;2023-04-16T05:21:29;97917.22;;;8.04;54.78
49949;BME280;35840;45.982;8.890;2023-04-16T05:23:57;97914.84;;;8.15;54.27
49949;BME280;35840;45.982;8.890;2023-04-16T05:26:24;97914.75;;;8.17;54.41
49949;BME280;35840;45.982;8.890;2023-04-16T05:28:51;97914.00;;;8.15;54.51
49949;BME280;35840;45.982;8.890;2023-04-16T05:31:17;97918.00;;;8.04;55.31
49949;BME280;35840;45.982;8.890;2023-04-16T05:33:44;97923.03;;;8.06;55.29
49949;BME280;35840;45.982;8.890;2023-04-16T05:36:11;97924.06;;;8.18;55.71
49949;BME280;35840;45.982;8.890;2023-04-16T05:38:38;97917.25;;;8.33;56.63
49949;BME280;35840;45.982;8.890;2023-04-16T05:41:04;97917.72;;;8.39;57.43
49949;BME280;35840;45.982;8.890;2023-04-16T05:43:31;97928.19;;;8.51;57.44
49949;BME280;35840;45.982;8.890;2023-04-16T05:45:58;97936.41;;;8.56;57.81
49949;BME280;35840;45.982;8.890;2023-04-16T05:48:24;97926.09;;;8.72;57.90
49949;BME280;35840;45.982;8.890;2023-04-16T05:50:51;97939.34;;;8.78;57.47
49949;BME280;35840;45.982;8.890;2023-04-16T05:53:19;97941.56;;;8.85;56.17
49949;BME280;35840;45.982;8.890;2023-04-16T05:55:46;97942.94;;;8.90;56.39
49949;BME280;35840;45.982;8.890;2023-04-16T05:58:12;97943.75;;;8.91;55.47
49949;BME280;35840;45.982;8.890;2023-04-16T06:00:39;97943.53;;;8.94;53.07
49949;BME280;35840;45.982;8.890;2023-04-16T06:03:06;97950.03;;;9.00;54.13
49949;BME280;35840;45.982;8.890;2023-04-16T06:05:33;97933.94;;;8.98;52.70
49949;BME280;35840;45.982;8.890;2023-04-16T06:08:00;97915.81;;;9.01;52.85
49949;BME280;35840;45.982;8.890;2023-04-16T06:10:27;97949.13;;;9.15;52.80
49949;BME280;35840;45.982;8.890;2023-04-16T06:12:53;97942.97;;;9.18;52.00
49949;BME280;35840;45.982;8.890;2023-04-16T06:15:20;97940.41;;;9.18;51.93
49949;BME280;35840;45.982;8.890;2023-04-16T06:17:48;97937.56;;;9.22;52.52
49949;BME280;35840;45.982;8.890;2023-04-16T06:20:15;97937.09;;;9.30;53.34
49949;BME280;35840;45.982;8.890;2023-04-16T06:22:42;97950.00;;;9.43;53.92
49949;BME280;35840;45.982;8.890;2023-04-16T06:25:09;97940.34;;;9.46;52.76
49949;BME280;35840;45.982;8.890;2023-04-16T06:27:35;97926.91;;;9.43;53.31
49949;BME280;35840;45.982;8.890;2023-04-16T06:30:03;97921.75;;;9.43;52.78
49949;BME280;35840;45.982;8.890;2023-04-16T06:32:30;97944.50;;;9.62;52.58
49949;BME280;35840;45.982;8.890;2023-04-16T06:34:57;97945.25;;;9.64;52.19
49949;BME280;35840;45.982;8.890;2023-04-16T06:37:24;97945.97;;;9.66;51.65
49949;BME280;35840;45.982;8.890;2023-04-16T06:39:51;97941.06;;;9.76;51.85
49949;BME280;35840;45.982;8.890;2023-04-16T06:42:18;97945.19;;;9.78;51.67
49949;BME280;35840;45.982;8.890;2023-04-16T06:44:45;97954.16;;;9.86;51.68
49949;BME280;35840;45.982;8.890;2023-04-16T06:47:12;97951.38;;;9.89;50.71
49949;BME280;35840;45.982;8.890;2023-04-16T06:49:38;97934.84;;;9.93;50.59
49949;BME280;35840;45.982;8.890;2023-04-16T06:52:06;97933.31;;;10.03;51.83
49949;BME280;35840;45.982;8.890;2023-04-16T06:54:32;97948.63;;;10.05;51.64
49949;BME280;35840;45.982;8.890;2023-04-16T06:56:59;97957.47;;;10.13;51.63
49949;BME280;35840;45.982;8.890;2023-04-16T06:59:27;97944.97;;;10.22;50.34
49949;BME280;35840;45.982;8.890;2023-04-16T07:01:55;97945.06;;;10.20;50.46
49949;BME280;35840;45.982;8.890;2023-04-16T07:04:22;97937.56;;;10.30;50.69
49949;BME280;35840;45.982;8.890;2023-04-16T07:06:49;97941.03;;;10.43;51.28
49949;BME280;35840;45.982;8.890;2023-04-16T07:09:15;97940.72;;;10.48;51.00
49949;BME280;35840;45.982;8.890;2023-04-16T07:11:43;97928.66;;;10.36;49.95
49949;BME280;35840;45.982;8.890;2023-04-16T07:14:10;97947.50;;;10.49;50.39
49949;BME280;35840;45.982;8.890;2023-04-16T07:16:37;97941.41;;;10.50;49.67
49949;BME280;35840;45.982;8.890;2023-04-16T07:19:03;97935.88;;;10.56;49.26
49949;BME280;35840;45.982;8.890;2023-04-16T07:21:30;97931.44;;;10.58;49.62
49949;BME280;35840;45.982;8.890;2023-04-16T07:23:57;97935.78;;;10.71;49.62
49949;BME280;35840;45.982;8.890;2023-04-16T07:26:24;97935.97;;;10.67;49.14
49949;BME280;35840;45.982;8.890;2023-04-16T07:28:51;97937.38;;;10.72;48.13
49949;BME280;35840;45.982;8.890;2023-04-16T07:31:18;97940.59;;;10.75;48.05
49949;BME280;35840;45.982;8.890;2023-04-16T07:33:45;97934.63;;;10.75;48.24
49949;BME280;35840;45.982;8.890;2023-04-16T07:36:11;97941.81;;;10.82;48.55
49949;BME280;35840;45.982;8.890;2023-04-16T07:38:38;97939.03;;;10.85;47.94
49949;BME280;35840;45.982;8.890;2023-04-16T07:41:05;97941.72;;;10.84;47.37
49949;BME280;35840;45.982;8.890;2023-04-16T07:43:32;97933.78;;;10.87;47.68
49949;BME280;35840;45.982;8.890;2023-04-16T07:45:58;97931.03;;;10.90;46.77
49949;BME280;35840;45.982;8.890;2023-04-16T07:48:25;97936.31;;;11.00;45.80
49949;BME280;35840;45.982;8.890;2023-04-16T07:50:52;97923.06;;;11.06;46.32
49949;BME280;35840;45.982;8.890;2023-04-16T07:53:19;97921.38;;;11.18;46.94
49949;BME280;35840;45.982;8.890;2023-04-16T07:55:45;97922.81;;;11.22;46.43
49949;BME280;35840;45.982;8.890;2023-04-16T07:58:12;97916.81;;;11.34;44.62
49949;BME280;35840;45.982;8.890;2023-04-16T08:00:39;97907.53;;;11.32;45.97
49949;BME280;35840;45.982;8.890;2023-04-16T08:03:06;97927.63;;;11.51;46.07
49949;BME280;35840;45.982;8.890;2023-04-16T08:05:33;97921.19;;;11.69;46.17
49949;BME280;35840;45.982;8.890;2023-04-16T08:08:00;97922.94;;;11.69;44.34
49949;BME280;35840;45.982;8.890;2023-04-16T08:10:27;97916.16;;;11.79;45.84
49949;BME280;35840;45.982;8.890;2023-04-16T08:12:53;97915.59;;;11.76;44.74
49949;BME280;35840;45.982;8.890;2023-04-16T08:15:20;97927.53;;;11.77;43.19
49949;BME280;35840;45.982;8.890;2023-04-16T08:17:47;97926.00;;;11.74;44.15
49949;BME280;35840;45.982;8.890;2023-04-16T08:20:14;97928.13;;;11.80;43.96
49949;BME280;35840;45.982;8.890;2023-04-16T08:22:45;97927.78;;;11.85;44.30
49949;BME280;35840;45.982;8.890;2023-04-16T08:25:12;97924.25;;;11.99;45.28
49949;BME280;35840;45.982;8.890;2023-04-16T08:27:38;97929.41;;;12.10;44.25
49949;BME280;35840;45.982;8.890;2023-04-16T08:30:06;97930.84;;;12.14;44.38
49949;BME280;35840;45.982;8.890;2023-04-16T08:32:33;97923.13;;;12.14;44.05
49949;BME280;35840;45.982;8.890;2023-04-16T08:35:00;97935.31;;;12.23;42.03
49949;BME280;35840;45.982;8.890;2023-04-16T08:37:27;97934.88;;;12.30;37.95
49949;BME280;35840;45.982;8.890;2023-04-16T08:39:54;97932.94;;;12.56;41.62
49949;BME280;35840;45.982;8.890;2023-04-16T08:42:31;97932.56;;;12.72;44.14
49949;BME280;35840;45.982;8.890;2023-04-16T08:45:12;97932.69;;;12.82;44.07
49949;BME280;35840;45.982;8.890;2023-04-16T08:47:45;97934.66;;;13.12;43.76
49949;BME280;35840;45.982;8.890;2023-04-16T08:50:16;97930.19;;;13.25;45.53
49949;BME280;35840;45.982;8.890;2023-04-16T08:52:57;97931.44;;;13.54;40.18
49949;BME280;35840;45.982;8.890;2023-04-16T08:55:48;97923.19;;;13.60;40.80
49949;BME280;35840;45.982;8.890;2023-04-16T08:58:21;97927.59;;;13.69;42.30
49949;BME280;35840;45.982;8.890;2023-04-16T09:00:48;97926.56;;;13.72;41.04
49949;BME280;35840;45.982;8.890;2023-04-16T09:03:15;97933.44;;;13.83;38.96
49949;BME280;35840;45.982;8.890;2023-04-16T09:05:42;97932.06;;;13.78;37.37
49949;BME280;35840;45.982;8.890;2023-04-16T09:08:09;97934.00;;;13.86;39.39
49949;BME280;35840;45.982;8.890;2023-04-16T09:10:36;97912.72;;;13.94;39.56
49949;BME280;35840;45.982;8.890;2023-04-16T09:13:03;97923.50;;;14.20;40.85
49949;BME280;35840;45.982;8.890;2023-04-16T09:15:30;97935.41;;;14.33;41.73
49949;BME280;35840;45.982;8.890;2023-04-16T09:18:00;97926.91;;;14.42;41.77
49949;BME280;35840;45.982;8.890;2023-04-16T09:20:27;97929.69;;;14.50;40.53
49949;BME280;35840;45.982;8.890;2023-04-16T09:22:54;97912.91;;;14.44;41.64
49949;BME280;35840;45.982;8.890;2023-04-16T09:25:23;97920.47;;;14.57;38.28
49949;BME280;35840;45.982;8.890;2023-04-16T09:27:50;97925.06;;;14.75;38.38
49949;BME280;35840;45.982;8.890;2023-04-16T09:32:48;97922.09;;;14.89;39.73
49949;BME280;35840;45.982;8.890;2023-04-16T09:35:19;97927.78;;;15.14;36.52
49949;BME280;35840;45.982;8.890;2023-04-16T09:38:04;97921.13;;;15.21;37.69
49949;BME280;35840;45.982;8.890;2023-04-16T09:40:30;97922.47;;;15.35;38.69
49949;BME280;35840;45.982;8.890;2023-04-16T09:42:57;97924.72;;;15.49;38.00
49949;BME280;35840;45.982;8.890;2023-04-16T09:45:30;97923.72;;;15.31;38.31
49949;BME280;35840;45.982;8.890;2023-04-16T09:48:02;97925.19;;;15.24;37.95
49949;BME280;35840;45.982;8.890;2023-04-16T09:50:30;97925.28;;;15.12;39.88
49949;BME280;35840;45.982;8.890;2023-04-16T09:53:00;97924.50;;;15.12;39.63
49949;BME280;35840;45.982;8.890;2023-04-16T09:55:28;97925.88;;;15.26;40.56
49949;BME280;35840;45.982;8.890;2023-04-16T09:57:58;97924.28;;;15.44;36.97
49949;BME280;35840;45.982;8.890;2023-04-16T10:00:28;97907.78;;;15.36;40.75
49949;BME280;35840;45.982;8.890;2023-04-16T10:03:05;97927.03;;;15.62;37.73
49949;BME280;35840;45.982;8.890;2023-04-16T10:05:33;97917.91;;;15.68;41.64
49949;BME280;35840;45.982;8.890;2023-04-16T10:08:00;97927.88;;;15.82;37.37
49949;BME280;35840;45.982;8.890;2023-04-16T10:10:28;97901.78;;;15.64;39.17
49949;BME280;35840;45.982;8.890;2023-04-16T10:12:56;97907.41;;;15.70;39.58
49949;BME280;35840;45.982;8.890;2023-04-16T10:15:23;97911.53;;;15.82;40.11
49949;BME280;35840;45.982;8.890;2023-04-16T10:17:51;97916.97;;;15.89;39.72
49949;BME280;35840;45.982;8.890;2023-04-16T10:20:19;97917.47;;;16.22;39.72
49949;BME280;35840;45.982;8.890;2023-04-16T10:22:47;97910.88;;;16.27;37.03
49949;BME280;35840;45.982;8.890;2023-04-16T10:25:14;97918.28;;;16.22;37.31
49949;BME280;35840;45.982;8.890;2023-04-16T10:27:42;97897.03;;;15.99;32.96
49949;BME280;35840;45.982;8.890;2023-04-16T10:30:10;97914.38;;;15.98;36.36
49949;BME280;35840;45.982;8.890;2023-04-16T10:32:39;97910.13;;;15.88;39.08
49949;BME280;35840;45.982;8.890;2023-04-16T10:35:07;97912.72;;;15.88;36.87
49949;BME280;35840;45.982;8.890;2023-04-16T10:37:36;97907.16;;;15.82;37.88
49949;BME280;35840;45.982;8.890;2023-04-16T10:40:24;97914.75;;;15.74;39.41
49949;BME280;35840;45.982;8.890;2023-04-16T10:42:56;97898.41;;;15.74;36.79
49949;BME280;35840;45.982;8.890;2023-04-16T10:45:30;97906.06;;;15.85;38.55
49949;BME280;35840;45.982;8.890;2023-04-16T10:47:58;97898.56;;;15.82;37.59
49949;BME280;35840;45.982;8.890;2023-04-16T10:50:33;97901.97;;;15.92;37.73
49949;BME280;35840;45.982;8.890;2023-04-16T10:53:22;97906.88;;;15.95;38.30
49949;BME280;35840;45.982;8.890;2023-04-16T10:55:56;97902.63;;;16.04;36.33
49949;BME280;35840;45.982;8.890;2023-04-16T10:58:30;97897.56;;;16.03;34.25
49949;BME280;35840;45.982;8.890;2023-04-16T11:01:06;97898.50;;;16.11;34.10
49949;BME280;35840;45.982;8.890;2023-04-16T11:03:33;97894.72;;;16.53;37.35
49949;BME280;35840;45.982;8.890;2023-04-16T11:06:10;97902.53;;;16.81;35.97
49949;BME280;35840;45.982;8.890;2023-04-16T11:08:39;97895.81;;;16.88;34.40
49949;BME280;35840;45.982;8.890;2023-04-16T11:11:20;97892.22;;;16.99;38.33
49949;BME280;35840;45.982;8.890;2023-04-16T11:13:47;97891.97;;;17.20;36.31
49949;BME280;35840;45.982;8.890;2023-04-16T11:16:15;97875.28;;;17.23;31.87
49949;BME280;35840;45.982;8.890;2023-04-16T11:18:44;97884.09;;;17.12;31.75
49949;BME280;35840;45.982;8.890;2023-04-16T11:21:17;97879.91;;;17.01;31.72
49949;BME280;35840;45.982;8.890;2023-04-16T11:23:51;97887.19;;;16.97;32.99
49949;BME280;35840;45.982;8.890;2023-04-16T11:26:23;97887.19;;;16.97;33.12
49949;BME280;35840;45.982;8.890;2023-04-16T11:28:51;97883.09;;;16.95;33.31
49949;BME280;35840;45.982;8.890;2023-04-16T11:31:18;97885.19;;;16.81;33.34
49949;BME280;35840;45.982;8.890;2023-04-16T11:33:46;97887.09;;;16.89;34.50
49949;BME280;35840;45.982;8.890;2023-04-16T11:36:12;97886.22;;;16.98;33.84
49949;BME280;35840;45.982;8.890;2023-04-16T11:38:39;97886.28;;;17.07;33.31
49949;BME280;35840;45.982;8.890;2023-04-16T11:41:09;97878.13;;;17.01;33.75
49949;BME280;35840;45.982;8.890;2023-04-16T11:43:36;97874.16;;;17.07;31.07
49949;BME280;35840;45.982;8.890;2023-04-16T11:46:05;97870.94;;;17.13;32.14
49949;BME280;35840;45.982;8.890;2023-04-16T11:48:51;97853.31;;;16.89;32.21
49949;BME280;35840;45.982;8.890;2023-04-16T11:51:18;97876.84;;;16.78;32.52
49949;BME280;35840;45.982;8.890;2023-04-16T11:53:49;97869.56;;;16.63;31.78
49949;BME280;35840;45.982;8.890;2023-04-16T11:56:29;97868.44;;;16.66;31.78
49949;BME280;35840;45.982;8.890;2023-04-16T12:01:44;97870.34;;;16.64;29.95
49949;BME280;35840;45.982;8.890;2023-04-16T12:04:13;97866.91;;;16.73;29.11
49949;BME280;35840;45.982;8.890;2023-04-16T12:07:09;97868.22;;;16.87;28.90
49949;BME280;35840;45.982;8.890;2023-04-16T12:09:38;97848.22;;;16.97;29.74
49949;BME280;35840;45.982;8.890;2023-04-16T12:12:26;97864.19;;;17.20;27.55
49949;BME280;35840;45.982;8.890;2023-04-16T12:14:53;97867.63;;;17.21;28.26
49949;BME280;35840;45.982;8.890;2023-04-16T12:17:22;97847.63;;;17.03;28.21
49949;BME280;35840;45.982;8.890;2023-04-16T12:19:57;97832.28;;;16.82;28.88
49949;BME280;35840;45.982;8.890;2023-04-16T12:22:31;97856.97;;;16.96;28.17
49949;BME280;35840;45.982;8.890;2023-04-16T12:25:07;97859.06;;;16.93;27.99
49949;BME280;35840;45.982;8.890;2023-04-16T12:27:47;97865.72;;;16.95;27.14
49949;BME280;35840;45.982;8.890;2023-04-16T12:30:19;97863.44;;;16.82;28.02
49949;BME280;35840;45.982;8.890;2023-04-16T12:32:49;97858.22;;;16.92;29.87
49949;BME280;35840;45.982;8.890;2023-04-16T12:35:31;97858.16;;;17.02;29.68
49949;BME280;35840;45.982;8.890;2023-04-16T12:37:58;97848.97;;;17.08;29.28
49949;BME280;35840;45.982;8.890;2023-04-16T12:40:25;97849.56;;;17.01;29.84
49949;BME280;35840;45.982;8.890;2023-04-16T12:42:52;97853.13;;;17.00;29.18
49949;BME280;35840;45.982;8.890;2023-04-16T12:45:20;97857.59;;;17.08;29.73
49949;BME280;35840;45.982;8.890;2023-04-16T12:47:47;97851.00;;;17.14;29.15
49949;BME280;35840;45.982;8.890;2023-04-16T12:50:16;97853.81;;;17.02;29.68
49949;BME280;35840;45.982;8.890;2023-04-16T12:52:43;97852.81;;;17.03;30.19
49949;BME280;35840;45.982;8.890;2023-04-16T12:55:10;97855.13;;;17.07;30.07
49949;BME280;35840;45.982;8.890;2023-04-16T12:57:38;97856.25;;;17.04;29.31
49949;BME280;35840;45.982;8.890;2023-04-16T13:00:05;97855.31;;;17.23;27.79
49949;BME280;35840;45.982;8.890;2023-04-16T13:02:32;97853.00;;;17.20;28.22
49949;BME280;35840;45.982;8.890;2023-04-16T13:04:59;97847.13;;;17.18;28.91
49949;BME280;35840;45.982;8.890;2023-04-16T13:07:27;97851.22;;;17.38;27.92
49949;BME280;35840;45.982;8.890;2023-04-16T13:09:54;97848.72;;;17.47;28.17
49949;BME280;35840;45.982;8.890;2023-04-16T13:12:21;97846.41;;;17.44;28.09
49949;BME280;35840;45.982;8.890;2023-04-16T13:14:47;97847.38;;;17.43;28.97
49949;BME280;35840;45.982;8.890;2023-04-16T13:17:14;97851.00;;;17.50;29.22